sensor_id;sensor_type;location;lat;lon;timestamp;temperature;humidity
80134;SHT30;69443;51.442;10.564;2023-07-02T00:02:06;18.97;61.97
80134;SHT30;69443;51.442;10.564;2023-07-02T00:04:31;18.97;62.01
80134;SHT30;69443;51.442;10.564;2023-07-02T00:06:56;18.92;61.90
80134;SHT30;69443;51.442;10.564;2023-07-02T00:09:22;18.90;62.03
80134;SHT30;69443;51.442;10.564;2023-07-02T00:11:47;18.87;62.05
80134;SHT30;69443;51.442;10.564;2023-07-02T00:14:13;18.85;62.06
80134;SHT30;69443;51.442;10.564;2023-07-02T00:16:42;18.82;62.04
80134;SHT30;69443;51.442;10.564;2023-07-02T00:19:07;18.79;62.00
80134;SHT30;69443;51.442;10.564;2023-07-02T00:21:33;18.79;62.08
80134;SHT30;69443;51.442;10.564;2023-07-02T00:23:59;18.76;62.10
80134;SHT30;69443;51.442;10.564;2023-07-02T00:26:26;18.72;62.14
80134;SHT30;69443;51.442;10.564;2023-07-02T00:28:54;18.72;62.13
80134;SHT30;69443;51.442;10.564;2023-07-02T00:31:19;18.68;62.06
80134;SHT30;69443;51.442;10.564;2023-07-02T00:33:45;18.69;62.13
80134;SHT30;69443;51.442;10.564;2023-07-02T00:36:10;18.65;62.17
80134;SHT30;69443;51.442;10.564;2023-07-02T00:38:49;18.62;62.10
80134;SHT30;69443;51.442;10.564;2023-07-02T00:41:15;18.59;62.08
80134;SHT30;69443;51.442;10.564;2023-07-02T00:43:41;18.59;62.13
80134;SHT30;69443;51.442;10.564;2023-07-02T00:48:44;18.55;62.20
80134;SHT30;69443;51.442;10.564;2023-07-02T00:51:12;18.55;62.22
80134;SHT30;69443;51.442;10.564;2023-07-02T00:53:38;18.55;62.15
80134;SHT30;69443;51.442;10.564;2023-07-02T00:56:04;18.52;62.13
80134;SHT30;69443;51.442;10.564;2023-07-02T00:58:29;18.49;62.17
80134;SHT30;69443;51.442;10.564;2023-07-02T01:00:55;18.49;62.18
80134;SHT30;69443;51.442;10.564;2023-07-02T01:03:21;18.45;62.16
80134;SHT30;69443;51.442;10.564;2023-07-02T01:05:47;18.47;62.14
80134;SHT30;69443;51.442;10.564;2023-07-02T01:08:13;18.42;62.17
80134;SHT30;69443;51.442;10.564;2023-07-02T01:10:38;18.40;62.23
80134;SHT30;69443;51.442;10.564;2023-07-02T01:13:12;18.40;62.40
80134;SHT30;69443;51.442;10.564;2023-07-02T01:15:39;18.38;62.27
80134;SHT30;69443;51.442;10.564;2023-07-02T01:18:05;18.34;62.39
80134;SHT30;69443;51.442;10.564;2023-07-02T01:20:32;18.34;62.46
80134;SHT30;69443;51.442;10.564;2023-07-02T01:22:59;18.32;62.39
80134;SHT30;69443;51.442;10.564;2023-07-02T01:25:28;18.30;62.46
80134;SHT30;69443;51.442;10.564;2023-07-02T01:27:54;18.28;62.62
80134;SHT30;69443;51.442;10.564;2023-07-02T01:30:20;18.24;62.50
80134;SHT30;69443;51.442;10.564;2023-07-02T01:32:46;18.23;62.58
80134;SHT30;69443;51.442;10.564;2023-07-02T01:35:11;18.21;62.56
80134;SHT30;69443;51.442;10.564;2023-07-02T01:37:37;18.24;62.61
80134;SHT30;69443;51.442;10.564;2023-07-02T01:40:06;18.18;62.58
80134;SHT30;69443;51.442;10.564;2023-07-02T01:42:32;18.17;62.54
80134;SHT30;69443;51.442;10.564;2023-07-02T01:44:57;18.17;62.43
80134;SHT30;69443;51.442;10.564;2023-07-02T01:47:23;18.14;62.52
80134;SHT30;69443;51.442;10.564;2023-07-02T01:49:50;18.15;62.56
80134;SHT30;69443;51.442;10.564;2023-07-02T01:52:16;18.15;62.55
80134;SHT30;69443;51.442;10.564;2023-07-02T01:54:42;18.13;62.54
80134;SHT30;69443;51.442;10.564;2023-07-02T01:57:07;18.10;62.66
80134;SHT30;69443;51.442;10.564;2023-07-02T01:59:33;18.08;62.73
80134;SHT30;69443;51.442;10.564;2023-07-02T02:01:59;18.07;62.73
80134;SHT30;69443;51.442;10.564;2023-07-02T02:04:24;18.07;62.61
80134;SHT30;69443;51.442;10.564;2023-07-02T02:06:50;18.06;62.76
80134;SHT30;69443;51.442;10.564;2023-07-02T02:09:15;18.03;62.72
80134;SHT30;69443;51.442;10.564;2023-07-02T02:11:44;18.06;62.85
80134;SHT30;69443;51.442;10.564;2023-07-02T02:14:09;18.01;62.79
80134;SHT30;69443;51.442;10.564;2023-07-02T02:16:34;18.00;62.89
80134;SHT30;69443;51.442;10.564;2023-07-02T02:19:00;17.97;62.86
80134;SHT30;69443;51.442;10.564;2023-07-02T02:21:26;17.97;63.03
80134;SHT30;69443;51.442;10.564;2023-07-02T02:23:51;17.96;63.03
80134;SHT30;69443;51.442;10.564;2023-07-02T02:26:17;17.94;63.03
80134;SHT30;69443;51.442;10.564;2023-07-02T02:28:42;17.94;63.09
80134;SHT30;69443;51.442;10.564;2023-07-02T02:31:08;17.90;63.02
80134;SHT30;69443;51.442;10.564;2023-07-02T02:33:34;17.93;63.04
80134;SHT30;69443;51.442;10.564;2023-07-02T02:36:03;17.90;63.11
80134;SHT30;69443;51.442;10.564;2023-07-02T02:38:28;17.90;63.07
80134;SHT30;69443;51.442;10.564;2023-07-02T02:40:54;17.86;63.06
80134;SHT30;69443;51.442;10.564;2023-07-02T02:43:19;17.89;63.04
80134;SHT30;69443;51.442;10.564;2023-07-02T02:45:46;17.89;63.10
80134;SHT30;69443;51.442;10.564;2023-07-02T02:48:11;17.86;63.13
80134;SHT30;69443;51.442;10.564;2023-07-02T02:50:37;17.85;63.05
80134;SHT30;69443;51.442;10.564;2023-07-02T02:53:07;17.82;63.09
80134;SHT30;69443;51.442;10.564;2023-07-02T02:55:32;17.82;63.05
80134;SHT30;69443;51.442;10.564;2023-07-02T02:57:58;17.83;63.00
80134;SHT30;69443;51.442;10.564;2023-07-02T03:00:23;17.83;63.06
80134;SHT30;69443;51.442;10.564;2023-07-02T03:02:48;17.79;63.09
80134;SHT30;69443;51.442;10.564;2023-07-02T03:05:14;17.79;63.05
80134;SHT30;69443;51.442;10.564;2023-07-02T03:07:41;17.76;63.16
80134;SHT30;69443;51.442;10.564;2023-07-02T03:10:07;17.76;63.15
80134;SHT30;69443;51.442;10.564;2023-07-02T03:12:33;17.78;63.18
80134;SHT30;69443;51.442;10.564;2023-07-02T03:14:58;17.75;63.14
80134;SHT30;69443;51.442;10.564;2023-07-02T03:17:24;17.75;63.13
80134;SHT30;69443;51.442;10.564;2023-07-02T03:19:50;17.73;63.12
80134;SHT30;69443;51.442;10.564;2023-07-02T03:22:16;17.73;63.09
80134;SHT30;69443;51.442;10.564;2023-07-02T03:24:41;17.72;63.19
80134;SHT30;69443;51.442;10.564;2023-07-02T03:27:07;17.68;63.16
80134;SHT30;69443;51.442;10.564;2023-07-02T03:29:35;17.68;63.28
80134;SHT30;69443;51.442;10.564;2023-07-02T03:32:03;17.68;63.25
80134;SHT30;69443;51.442;10.564;2023-07-02T03:34:29;17.66;63.36
80134;SHT30;69443;51.442;10.564;2023-07-02T03:36:54;17.63;63.39
80134;SHT30;69443;51.442;10.564;2023-07-02T03:39:19;17.63;63.49
80134;SHT30;69443;51.442;10.564;2023-07-02T03:41:45;17.62;63.60
80134;SHT30;69443;51.442;10.564;2023-07-02T03:44:10;17.61;63.58
80134;SHT30;69443;51.442;10.564;2023-07-02T03:46:36;17.59;63.54
80134;SHT30;69443;51.442;10.564;2023-07-02T03:49:04;17.61;63.70
80134;SHT30;69443;51.442;10.564;2023-07-02T03:51:32;17.58;63.68
80134;SHT30;69443;51.442;10.564;2023-07-02T03:53:58;17.59;63.79
80134;SHT30;69443;51.442;10.564;2023-07-02T03:56:24;17.58;63.79
80134;SHT30;69443;51.442;10.564;2023-07-02T03:58:50;17.59;63.81
80134;SHT30;69443;51.442;10.564;2023-07-02T04:01:15;17.63;63.79
80134;SHT30;69443;51.442;10.564;2023-07-02T04:03:47;17.62;63.95
80134;SHT30;69443;51.442;10.564;2023-07-02T04:06:14;17.65;63.78
80134;SHT30;69443;51.442;10.564;2023-07-02T04:08:39;17.69;63.95
80134;SHT30;69443;51.442;10.564;2023-07-02T04:11:04;17.75;63.97
80134;SHT30;69443;51.442;10.564;2023-07-02T04:13:30;17.76;63.94
80134;SHT30;69443;51.442;10.564;2023-07-02T04:15:55;17.79;63.77
80134;SHT30;69443;51.442;10.564;2023-07-02T04:18:21;17.80;63.65
80134;SHT30;69443;51.442;10.564;2023-07-02T04:20:46;17.85;63.68
80134;SHT30;69443;51.442;10.564;2023-07-02T04:23:11;17.86;63.63
80134;SHT30;69443;51.442;10.564;2023-07-02T04:25:37;17.89;63.65
80134;SHT30;69443;51.442;10.564;2023-07-02T04:28:02;17.91;63.42
80134;SHT30;69443;51.442;10.564;2023-07-02T04:30:28;17.91;63.48
80134;SHT30;69443;51.442;10.564;2023-07-02T04:32:53;17.93;63.38
80134;SHT30;69443;51.442;10.564;2023-07-02T04:35:18;17.94;63.29
80134;SHT30;69443;51.442;10.564;2023-07-02T04:37:44;18.00;63.21
80134;SHT30;69443;51.442;10.564;2023-07-02T04:40:10;18.00;63.13
80134;SHT30;69443;51.442;10.564;2023-07-02T04:42:39;18.07;62.95
80134;SHT30;69443;51.442;10.564;2023-07-02T04:45:06;18.11;62.85
80134;SHT30;69443;51.442;10.564;2023-07-02T04:47:32;18.13;62.72
80134;SHT30;69443;51.442;10.564;2023-07-02T04:49:58;18.17;62.66
80134;SHT30;69443;51.442;10.564;2023-07-02T04:52:24;18.20;62.60
80134;SHT30;69443;51.442;10.564;2023-07-02T04:54:49;18.23;62.58
80134;SHT30;69443;51.442;10.564;2023-07-02T04:57:15;18.25;62.58
80134;SHT30;69443;51.442;10.564;2023-07-02T04:59:44;18.27;62.59
80134;SHT30;69443;51.442;10.564;2023-07-02T05:02:09;18.28;62.54
80134;SHT30;69443;51.442;10.564;2023-07-02T05:04:36;18.30;62.55
80134;SHT30;69443;51.442;10.564;2023-07-02T05:07:03;18.32;62.70
80134;SHT30;69443;51.442;10.564;2023-07-02T05:09:28;18.31;62.56
80134;SHT30;69443;51.442;10.564;2023-07-02T05:11:54;18.32;62.63
80134;SHT30;69443;51.442;10.564;2023-07-02T05:14:19;18.34;62.70
80134;SHT30;69443;51.442;10.564;2023-07-02T05:16:44;18.35;62.62
80134;SHT30;69443;51.442;10.564;2023-07-02T05:19:10;18.34;62.67
80134;SHT30;69443;51.442;10.564;2023-07-02T05:21:35;18.34;62.71
80134;SHT30;69443;51.442;10.564;2023-07-02T05:24:01;18.37;62.74
80134;SHT30;69443;51.442;10.564;2023-07-02T05:26:26;18.37;62.67
80134;SHT30;69443;51.442;10.564;2023-07-02T05:28:52;18.38;62.68
80134;SHT30;69443;51.442;10.564;2023-07-02T05:31:18;18.37;62.71
80134;SHT30;69443;51.442;10.564;2023-07-02T05:33:43;18.40;62.70
80134;SHT30;69443;51.442;10.564;2023-07-02T05:36:08;18.40;62.76
80134;SHT30;69443;51.442;10.564;2023-07-02T05:38:34;18.40;62.74
80134;SHT30;69443;51.442;10.564;2023-07-02T05:40:59;18.44;62.83
80134;SHT30;69443;51.442;10.564;2023-07-02T05:43:25;18.42;62.74
80134;SHT30;69443;51.442;10.564;2023-07-02T05:45:51;18.44;62.77
80134;SHT30;69443;51.442;10.564;2023-07-02T05:48:17;18.48;62.74
80134;SHT30;69443;51.442;10.564;2023-07-02T05:50:43;18.51;62.60
80134;SHT30;69443;51.442;10.564;2023-07-02T05:53:09;18.52;62.54
80134;SHT30;69443;51.442;10.564;2023-07-02T05:55:35;18.56;62.42
80134;SHT30;69443;51.442;10.564;2023-07-02T05:58:00;18.60;62.33
80134;SHT30;69443;51.442;10.564;2023-07-02T06:00:28;18.63;62.28
80134;SHT30;69443;51.442;10.564;2023-07-02T06:02:53;18.66;62.30
80134;SHT30;69443;51.442;10.564;2023-07-02T06:05:19;18.72;62.13
80134;SHT30;69443;51.442;10.564;2023-07-02T06:07:44;18.73;62.02
80134;SHT30;69443;51.442;10.564;2023-07-02T06:10:09;18.77;62.00
80134;SHT30;69443;51.442;10.564;2023-07-02T06:12:35;18.80;61.82
80134;SHT30;69443;51.442;10.564;2023-07-02T06:15:00;18.86;61.93
80134;SHT30;69443;51.442;10.564;2023-07-02T06:17:26;18.87;61.75
80134;SHT30;69443;51.442;10.564;2023-07-02T06:19:51;18.94;61.56
80134;SHT30;69443;51.442;10.564;2023-07-02T06:22:17;18.99;61.54
80134;SHT30;69443;51.442;10.564;2023-07-02T06:24:42;18.99;61.47
80134;SHT30;69443;51.442;10.564;2023-07-02T06:27:08;19.03;61.50
80134;SHT30;69443;51.442;10.564;2023-07-02T06:29:33;19.08;61.21
80134;SHT30;69443;51.442;10.564;2023-07-02T06:31:59;19.13;61.18
80134;SHT30;69443;51.442;10.564;2023-07-02T06:34:25;19.17;61.00
80134;SHT30;69443;51.442;10.564;2023-07-02T06:36:50;19.21;60.92
80134;SHT30;69443;51.442;10.564;2023-07-02T06:39:15;19.24;60.78
80134;SHT30;69443;51.442;10.564;2023-07-02T06:41:41;19.28;60.64
80134;SHT30;69443;51.442;10.564;2023-07-02T06:44:06;19.32;60.53
80134;SHT30;69443;51.442;10.564;2023-07-02T06:46:32;19.36;60.41
80134;SHT30;69443;51.442;10.564;2023-07-02T06:48:57;19.39;60.16
80134;SHT30;69443;51.442;10.564;2023-07-02T06:51:23;19.44;60.55
80134;SHT30;69443;51.442;10.564;2023-07-02T06:53:50;19.45;60.26
80134;SHT30;69443;51.442;10.564;2023-07-02T06:56:15;19.48;60.09
80134;SHT30;69443;51.442;10.564;2023-07-02T06:58:44;19.55;60.15
80134;SHT30;69443;51.442;10.564;2023-07-02T07:01:09;19.58;59.89
80134;SHT30;69443;51.442;10.564;2023-07-02T07:03:35;19.59;59.51
80134;SHT30;69443;51.442;10.564;2023-07-02T07:06:01;19.65;59.37
80134;SHT30;69443;51.442;10.564;2023-07-02T07:08:26;19.63;59.27
80134;SHT30;69443;51.442;10.564;2023-07-02T07:10:52;19.67;59.14
80134;SHT30;69443;51.442;10.564;2023-07-02T07:13:17;19.69;59.07
80134;SHT30;69443;51.442;10.564;2023-07-02T07:15:42;19.72;58.90
80134;SHT30;69443;51.442;10.564;2023-07-02T07:18:09;19.79;58.78
80134;SHT30;69443;51.442;10.564;2023-07-02T07:20:34;19.80;58.83
80134;SHT30;69443;51.442;10.564;2023-07-02T07:23:02;19.84;58.65
80134;SHT30;69443;51.442;10.564;2023-07-02T07:25:27;19.89;58.33
80134;SHT30;69443;51.442;10.564;2023-07-02T07:27:53;19.93;58.15
80134;SHT30;69443;51.442;10.564;2023-07-02T07:30:19;20.00;57.98
80134;SHT30;69443;51.442;10.564;2023-07-02T07:32:54;20.03;57.88
80134;SHT30;69443;51.442;10.564;2023-07-02T07:35:22;20.11;57.94
80134;SHT30;69443;51.442;10.564;2023-07-02T07:37:48;20.17;57.61
80134;SHT30;69443;51.442;10.564;2023-07-02T07:40:14;20.21;57.36
80134;SHT30;69443;51.442;10.564;2023-07-02T07:42:43;20.27;57.26
80134;SHT30;69443;51.442;10.564;2023-07-02T07:45:10;20.34;57.18
80134;SHT30;69443;51.442;10.564;2023-07-02T07:47:36;20.41;57.07
80134;SHT30;69443;51.442;10.564;2023-07-02T07:50:01;20.48;56.83
80134;SHT30;69443;51.442;10.564;2023-07-02T07:52:27;20.53;56.70
80134;SHT30;69443;51.442;10.564;2023-07-02T07:54:52;20.61;56.74
80134;SHT30;69443;51.442;10.564;2023-07-02T07:57:18;20.63;56.66
80134;SHT30;69443;51.442;10.564;2023-07-02T07:59:43;20.72;56.48
80134;SHT30;69443;51.442;10.564;2023-07-02T08:02:09;20.76;56.45
80134;SHT30;69443;51.442;10.564;2023-07-02T08:04:34;20.81;56.41
80134;SHT30;69443;51.442;10.564;2023-07-02T08:06:59;20.87;56.35
80134;SHT30;69443;51.442;10.564;2023-07-02T08:09:25;20.94;56.25
80134;SHT30;69443;51.442;10.564;2023-07-02T08:11:50;21.03;56.14
80134;SHT30;69443;51.442;10.564;2023-07-02T08:14:17;21.11;56.08
80134;SHT30;69443;51.442;10.564;2023-07-02T08:16:45;21.24;55.90
80134;SHT30;69443;51.442;10.564;2023-07-02T08:19:10;21.35;55.82
80134;SHT30;69443;51.442;10.564;2023-07-02T08:21:36;21.46;55.74
80134;SHT30;69443;51.442;10.564;2023-07-02T08:24:02;21.56;55.64
80134;SHT30;69443;51.442;10.564;2023-07-02T08:26:28;21.73;55.54
80134;SHT30;69443;51.442;10.564;2023-07-02T08:28:54;21.87;55.40
80134;SHT30;69443;51.442;10.564;2023-07-02T08:31:19;22.01;55.25
80134;SHT30;69443;51.442;10.564;2023-07-02T08:33:44;22.15;54.79
80134;SHT30;69443;51.442;10.564;2023-07-02T08:36:10;22.28;54.83
80134;SHT30;69443;51.442;10.564;2023-07-02T08:38:35;22.41;54.49
80134;SHT30;69443;51.442;10.564;2023-07-02T08:41:01;22.45;54.32
80134;SHT30;69443;51.442;10.564;2023-07-02T08:43:26;22.49;54.23
80134;SHT30;69443;51.442;10.564;2023-07-02T08:45:53;22.51;54.33
80134;SHT30;69443;51.442;10.564;2023-07-02T08:48:18;22.51;54.29
80134;SHT30;69443;51.442;10.564;2023-07-02T08:50:48;22.53;54.43
80134;SHT30;69443;51.442;10.564;2023-07-02T08:53:14;22.53;54.27
80134;SHT30;69443;51.442;10.564;2023-07-02T08:55:39;22.55;54.20
80134;SHT30;69443;51.442;10.564;2023-07-02T08:58:05;22.57;54.16
80134;SHT30;69443;51.442;10.564;2023-07-02T09:00:31;22.57;54.21
80134;SHT30;69443;51.442;10.564;2023-07-02T09:03:11;22.63;54.22
80134;SHT30;69443;51.442;10.564;2023-07-02T09:05:52;22.67;53.45
80134;SHT30;69443;51.442;10.564;2023-07-02T09:08:27;22.70;53.79
80134;SHT30;69443;51.442;10.564;2023-07-02T09:10:53;22.76;53.75
80134;SHT30;69443;51.442;10.564;2023-07-02T09:13:19;22.87;53.53
80134;SHT30;69443;51.442;10.564;2023-07-02T09:15:45;22.94;53.47
80134;SHT30;69443;51.442;10.564;2023-07-02T09:18:20;23.07;53.32
80134;SHT30;69443;51.442;10.564;2023-07-02T09:20:46;23.24;53.03
80134;SHT30;69443;51.442;10.564;2023-07-02T09:23:12;23.37;52.92
80134;SHT30;69443;51.442;10.564;2023-07-02T09:25:38;23.49;52.70
80134;SHT30;69443;51.442;10.564;2023-07-02T09:28:21;23.59;52.45
80134;SHT30;69443;51.442;10.564;2023-07-02T09:30:56;23.74;52.34
80134;SHT30;69443;51.442;10.564;2023-07-02T09:33:27;23.81;51.78
80134;SHT30;69443;51.442;10.564;2023-07-02T09:35:53;23.92;51.98
80134;SHT30;69443;51.442;10.564;2023-07-02T09:38:19;24.03;51.77
80134;SHT30;69443;51.442;10.564;2023-07-02T09:40:53;24.08;51.41
80134;SHT30;69443;51.442;10.564;2023-07-02T09:43:19;24.22;51.25
80134;SHT30;69443;51.442;10.564;2023-07-02T09:45:46;24.31;50.90
80134;SHT30;69443;51.442;10.564;2023-07-02T09:48:16;24.45;50.67
80134;SHT30;69443;51.442;10.564;2023-07-02T09:50:43;24.55;50.53
80134;SHT30;69443;51.442;10.564;2023-07-02T09:53:10;24.63;50.32
80134;SHT30;69443;51.442;10.564;2023-07-02T09:55:37;24.75;50.24
80134;SHT30;69443;51.442;10.564;2023-07-02T09:58:03;24.82;49.96
80134;SHT30;69443;51.442;10.564;2023-07-02T10:00:29;24.86;49.81
80134;SHT30;69443;51.442;10.564;2023-07-02T10:02:54;24.86;49.60
80134;SHT30;69443;51.442;10.564;2023-07-02T10:05:29;24.88;49.68
80134;SHT30;69443;51.442;10.564;2023-07-02T10:08:00;24.91;49.32
80134;SHT30;69443;51.442;10.564;2023-07-02T10:10:36;24.97;49.53
80134;SHT30;69443;51.442;10.564;2023-07-02T10:13:01;25.04;49.38
80134;SHT30;69443;51.442;10.564;2023-07-02T10:15:28;25.12;49.37
80134;SHT30;69443;51.442;10.564;2023-07-02T10:17:58;25.21;49.07
80134;SHT30;69443;51.442;10.564;2023-07-02T10:20:42;25.27;48.47
80134;SHT30;69443;51.442;10.564;2023-07-02T10:23:08;25.37;48.83
80134;SHT30;69443;51.442;10.564;2023-07-02T10:25:36;25.45;48.54
80134;SHT30;69443;51.442;10.564;2023-07-02T10:28:17;25.53;47.96
80134;SHT30;69443;51.442;10.564;2023-07-02T10:30:44;25.61;48.47
80134;SHT30;69443;51.442;10.564;2023-07-02T10:33:17;25.70;48.29
80134;SHT30;69443;51.442;10.564;2023-07-02T10:35:47;25.77;48.15
80134;SHT30;69443;51.442;10.564;2023-07-02T10:38:24;25.82;48.09
80134;SHT30;69443;51.442;10.564;2023-07-02T10:40:57;25.86;47.82
80134;SHT30;69443;51.442;10.564;2023-07-02T10:43:29;25.91;47.91
80134;SHT30;69443;51.442;10.564;2023-07-02T10:45:55;25.97;47.87
80134;SHT30;69443;51.442;10.564;2023-07-02T10:48:21;26.01;47.84
80134;SHT30;69443;51.442;10.564;2023-07-02T10:50:46;26.00;47.52
80134;SHT30;69443;51.442;10.564;2023-07-02T10:53:16;26.01;47.66
80134;SHT30;69443;51.442;10.564;2023-07-02T10:55:42;26.02;47.61
80134;SHT30;69443;51.442;10.564;2023-07-02T10:58:09;26.05;47.51
80134;SHT30;69443;51.442;10.564;2023-07-02T11:00:51;26.08;47.24
80134;SHT30;69443;51.442;10.564;2023-07-02T11:03:26;26.08;47.48
80134;SHT30;69443;51.442;10.564;2023-07-02T11:05:53;26.04;47.44
80134;SHT30;69443;51.442;10.564;2023-07-02T11:08:19;26.02;47.26
80134;SHT30;69443;51.442;10.564;2023-07-02T11:10:46;26.02;47.32
80134;SHT30;69443;51.442;10.564;2023-07-02T11:13:12;26.10;47.23
80134;SHT30;69443;51.442;10.564;2023-07-02T11:15:38;26.14;47.11
80134;SHT30;69443;51.442;10.564;2023-07-02T11:18:23;26.20;46.04
80134;SHT30;69443;51.442;10.564;2023-07-02T11:20:48;26.24;46.99
80134;SHT30;69443;51.442;10.564;2023-07-02T11:23:20;26.24;46.68
80134;SHT30;69443;51.442;10.564;2023-07-02T11:26:03;26.31;45.88
80134;SHT30;69443;51.442;10.564;2023-07-02T11:28:30;26.39;46.74
80134;SHT30;69443;51.442;10.564;2023-07-02T11:30:57;26.46;46.50
80134;SHT30;69443;51.442;10.564;2023-07-02T11:35:58;26.55;46.45
80134;SHT30;69443;51.442;10.564;2023-07-02T11:38:23;26.56;46.30
80134;SHT30;69443;51.442;10.564;2023-07-02T11:40:48;26.57;46.46
80134;SHT30;69443;51.442;10.564;2023-07-02T11:43:14;26.59;46.17
80134;SHT30;69443;51.442;10.564;2023-07-02T11:45:40;26.62;45.99
80134;SHT30;69443;51.442;10.564;2023-07-02T11:48:05;26.64;45.78
80134;SHT30;69443;51.442;10.564;2023-07-02T11:50:30;26.70;45.71
80134;SHT30;69443;51.442;10.564;2023-07-02T11:52:56;26.76;45.53
80134;SHT30;69443;51.442;10.564;2023-07-02T11:55:21;26.79;45.16
80134;SHT30;69443;51.442;10.564;2023-07-02T11:57:47;26.82;45.35
80134;SHT30;69443;51.442;10.564;2023-07-02T12:00:14;26.90;44.95
80134;SHT30;69443;51.442;10.564;2023-07-02T12:02:40;26.94;45.09
80134;SHT30;69443;51.442;10.564;2023-07-02T12:05:05;26.96;45.08
80134;SHT30;69443;51.442;10.564;2023-07-02T12:07:31;27.03;44.98
80134;SHT30;69443;51.442;10.564;2023-07-02T12:09:56;27.07;44.94
80134;SHT30;69443;51.442;10.564;2023-07-02T12:12:21;27.08;44.62
80134;SHT30;69443;51.442;10.564;2023-07-02T12:14:47;27.15;44.50
80134;SHT30;69443;51.442;10.564;2023-07-02T12:17:12;27.21;44.52
80134;SHT30;69443;51.442;10.564;2023-07-02T12:19:41;27.25;44.63
80134;SHT30;69443;51.442;10.564;2023-07-02T12:22:06;27.30;44.71
80134;SHT30;69443;51.442;10.564;2023-07-02T12:24:32;27.28;44.72
80134;SHT30;69443;51.442;10.564;2023-07-02T12:26:57;27.34;44.80
80134;SHT30;69443;51.442;10.564;2023-07-02T12:29:23;27.37;44.49
80134;SHT30;69443;51.442;10.564;2023-07-02T12:31:48;27.37;44.64
80134;SHT30;69443;51.442;10.564;2023-07-02T12:34:13;27.42;44.47
80134;SHT30;69443;51.442;10.564;2023-07-02T12:36:39;27.39;44.47
80134;SHT30;69443;51.442;10.564;2023-07-02T12:39:04;27.39;44.49
80134;SHT30;69443;51.442;10.564;2023-07-02T12:41:30;27.38;44.67
80134;SHT30;69443;51.442;10.564;2023-07-02T12:43:56;27.34;44.68
80134;SHT30;69443;51.442;10.564;2023-07-02T12:46:21;27.32;44.72
80134;SHT30;69443;51.442;10.564;2023-07-02T12:48:47;27.28;44.76
80134;SHT30;69443;51.442;10.564;2023-07-02T12:51:12;27.27;44.68
80134;SHT30;69443;51.442;10.564;2023-07-02T12:53:37;27.31;44.68
80134;SHT30;69443;51.442;10.564;2023-07-02T12:56:03;27.35;44.73
80134;SHT30;69443;51.442;10.564;2023-07-02T12:58:29;27.34;44.83
80134;SHT30;69443;51.442;10.564;2023-07-02T13:00:54;27.37;44.68
80134;SHT30;69443;51.442;10.564;2023-07-02T13:03:20;27.37;43.95
80134;SHT30;69443;51.442;10.564;2023-07-02T13:05:48;27.37;44.37
80134;SHT30;69443;51.442;10.564;2023-07-02T13:08:13;27.37;44.64
80134;SHT30;69443;51.442;10.564;2023-07-02T13:10:39;27.37;44.45
80134;SHT30;69443;51.442;10.564;2023-07-02T13:13:04;27.37;44.09
80134;SHT30;69443;51.442;10.564;2023-07-02T13:15:29;27.39;44.34
80134;SHT30;69443;51.442;10.564;2023-07-02T13:17:55;27.38;44.32
80134;SHT30;69443;51.442;10.564;2023-07-02T13:20:20;27.38;44.40
80134;SHT30;69443;51.442;10.564;2023-07-02T13:22:46;27.38;44.58
80134;SHT30;69443;51.442;10.564;2023-07-02T13:25:11;27.38;44.67
80134;SHT30;69443;51.442;10.564;2023-07-02T13:27:37;27.38;44.72
80134;SHT30;69443;51.442;10.564;2023-07-02T13:30:02;27.35;44.61
80134;SHT30;69443;51.442;10.564;2023-07-02T13:32:28;27.34;44.58
80134;SHT30;69443;51.442;10.564;2023-07-02T13:34:53;27.32;44.65
80134;SHT30;69443;51.442;10.564;2023-07-02T13:37:19;27.32;44.44
80134;SHT30;69443;51.442;10.564;2023-07-02T13:39:48;27.27;44.07
80134;SHT30;69443;51.442;10.564;2023-07-02T13:42:14;27.30;44.25
80134;SHT30;69443;51.442;10.564;2023-07-02T13:44:40;27.30;44.37
80134;SHT30;69443;51.442;10.564;2023-07-02T13:47:06;27.27;44.37
80134;SHT30;69443;51.442;10.564;2023-07-02T13:49:32;27.25;44.56
80134;SHT30;69443;51.442;10.564;2023-07-02T13:51:58;27.21;44.57
80134;SHT30;69443;51.442;10.564;2023-07-02T13:54:23;27.20;44.67
80134;SHT30;69443;51.442;10.564;2023-07-02T13:56:49;27.16;44.58
80134;SHT30;69443;51.442;10.564;2023-07-02T13:59:15;27.14;44.57
80134;SHT30;69443;51.442;10.564;2023-07-02T14:01:42;27.11;44.34
80134;SHT30;69443;51.442;10.564;2023-07-02T14:04:07;27.08;44.70
80134;SHT30;69443;51.442;10.564;2023-07-02T14:06:33;27.08;44.77
80134;SHT30;69443;51.442;10.564;2023-07-02T14:08:58;27.07;44.47
80134;SHT30;69443;51.442;10.564;2023-07-02T14:11:25;27.10;44.39
80134;SHT30;69443;51.442;10.564;2023-07-02T14:13:50;27.10;44.54
80134;SHT30;69443;51.442;10.564;2023-07-02T14:16:16;27.10;44.58
80134;SHT30;69443;51.442;10.564;2023-07-02T14:18:41;27.12;44.61
80134;SHT30;69443;51.442;10.564;2023-07-02T14:21:07;27.11;44.46
80134;SHT30;69443;51.442;10.564;2023-07-02T14:23:32;27.08;44.64
80134;SHT30;69443;51.442;10.564;2023-07-02T14:25:57;27.05;44.63
80134;SHT30;69443;51.442;10.564;2023-07-02T14:28:23;27.05;44.64
80134;SHT30;69443;51.442;10.564;2023-07-02T14:30:56;27.00;44.57
80134;SHT30;69443;51.442;10.564;2023-07-02T14:33:22;26.98;44.69
80134;SHT30;69443;51.442;10.564;2023-07-02T14:35:47;26.97;44.71
80134;SHT30;69443;51.442;10.564;2023-07-02T14:38:13;26.96;44.81
80134;SHT30;69443;51.442;10.564;2023-07-02T14:40:38;26.97;43.99
80134;SHT30;69443;51.442;10.564;2023-07-02T14:43:03;26.97;44.52
80134;SHT30;69443;51.442;10.564;2023-07-02T14:45:29;26.98;44.63
80134;SHT30;69443;51.442;10.564;2023-07-02T14:47:54;26.98;44.59
80134;SHT30;69443;51.442;10.564;2023-07-02T14:50:25;27.00;44.47
80134;SHT30;69443;51.442;10.564;2023-07-02T14:52:51;27.01;44.36
80134;SHT30;69443;51.442;10.564;2023-07-02T14:55:16;27.01;44.11
80134;SHT30;69443;51.442;10.564;2023-07-02T14:57:41;27.01;44.22
80134;SHT30;69443;51.442;10.564;2023-07-02T15:00:07;27.05;44.19
80134;SHT30;69443;51.442;10.564;2023-07-02T15:02:33;27.07;44.10
80134;SHT30;69443;51.442;10.564;2023-07-02T15:04:59;27.12;44.09
80134;SHT30;69443;51.442;10.564;2023-07-02T15:07:24;27.14;43.93
80134;SHT30;69443;51.442;10.564;2023-07-02T15:09:50;27.18;43.90
80134;SHT30;69443;51.442;10.564;2023-07-02T15:12:15;27.18;43.52
80134;SHT30;69443;51.442;10.564;2023-07-02T15:14:41;27.18;43.30
80134;SHT30;69443;51.442;10.564;2023-07-02T15:17:06;27.20;43.17